Decoded Metar for KMFR (MEDFORD in OR, USA) (IATA:MFR) | Meteo·Mobile Aviation Weather
aviador You're here:

KMFR Decoded Metar

MEDFORD in OR, USA
Report Time2019-07-21 14:53:00
UTC Time2019-07-21 15:04:57
Flight Rules vfr VFR
WindCalm
Visibility9999 m
Phenomena:N/A
Clouds:N/A
Expected CloudBase > 4,000 ft AGL from Temp-Dew spread
CeilingNone
Temp18°C (ISA +6)
Dew Point08°C (52% RH)
AAT17.5°C
QNH1016 hPa
Density Alt2,001 ft
Elevation1,299 ft
Report Wrong Elevation
Raw Report
KMFR 211453Z 00000KT 10SM CLR 18/08 A3000 RMK AO2 SLP147 T01830078
51013=

Extra information for KMFR:More info

Metar Taf Metar & Taf Last 4 Metars F.Rules Stats Wind Profile Meteogram Temp Stats Airport Information Weather charts Add Link Nearby VenuesMetar ALERT Operation Metar Decoded Social comments

AIRNAV info for KMFR